»·PEaware :: AAL420 KSMF-KPDX

AAL420 :: KSMF-KPDX

FLIGHT INFORMATION

Flight Status: Arrived
Operator:
American Airlines
More flights by this operator :: More flights under this callsign
Pilot: Chris V. (11989)
Aircraft: AIRBUS A320
(A320)
More flights by this aircraft type
Origin: KSMF Sacramento Intl
United States
Destination: KPDX Portland Intl
United States
More flights between these airports :: More routes between these airports
Route: +RBL MACHU TMBRS2
File this flight plan on PilotEdge
Remarks:
Altitude:
(Current/Filed)
320ft
Speed:
(Current/Filed)
450kts
Departed: 30-Jul-18 04:53 PM
Arrived: 30-Jul-18 05:58 PM
Distance/Time
Traveled:
416nm/1:04
Distance/Time
To Go:
Arrived

Flight Plot

Page will automatically refresh every two minutes.

Flight plan parsing failed; only flown route is shown


Map Options




Map Legend


Flown Route
Filed Route
Departure Airport
Arrival Airport
Navaid (VOR, NDB)
Fix

Horizontal Profiles

Position Reports

Time Latitude Longitude Heading Altitude Ground
Speed
30-Jul-18 16:14 38.696322 -121.593382 177 32ft 0kts
30-Jul-18 16:15 38.696322 -121.593382 177 32ft 0kts
30-Jul-18 16:16 38.696322 -121.593382 177 32ft 0kts
30-Jul-18 16:17 38.696322 -121.593382 177 32ft 0kts
30-Jul-18 16:18 38.696322 -121.593382 177 32ft 0kts
30-Jul-18 16:19 38.696322 -121.593382 177 32ft 0kts
30-Jul-18 16:20 38.696322 -121.593382 177 32ft 0kts
30-Jul-18 16:21 38.696322 -121.593382 177 32ft 0kts
30-Jul-18 16:22 38.696322 -121.593382 177 32ft 0kts
30-Jul-18 16:23 38.696322 -121.593382 177 32ft 0kts
30-Jul-18 16:24 38.696322 -121.593382 177 32ft 0kts
30-Jul-18 16:25 38.696322 -121.593382 177 32ft 0kts
30-Jul-18 16:26 38.696322 -121.593382 177 32ft 0kts
30-Jul-18 16:27 38.696322 -121.593382 177 32ft 0kts
30-Jul-18 16:28 38.696322 -121.593382 177 32ft 0kts
30-Jul-18 16:29 38.696322 -121.593382 177 32ft 0kts
30-Jul-18 16:30 38.696322 -121.593382 177 32ft 0kts
30-Jul-18 16:31 38.696323 -121.593382 177 32ft 0kts
30-Jul-18 16:32 38.696323 -121.593382 177 32ft 0kts
30-Jul-18 16:33 38.696323 -121.593382 177 32ft 0kts
30-Jul-18 16:34 38.696323 -121.593382 177 32ft 0kts
30-Jul-18 16:35 38.696323 -121.593382 177 32ft 0kts
30-Jul-18 16:36 38.696323 -121.593382 177 32ft 0kts
30-Jul-18 16:37 38.696323 -121.593382 177 32ft 0kts
30-Jul-18 16:38 38.696323 -121.593382 177 32ft 0kts
30-Jul-18 16:39 38.696469 -121.593389 178 32ft 2kts
30-Jul-18 16:40 38.696977 -121.593389 182 32ft 1kts
30-Jul-18 16:41 38.696993 -121.593388 182 32ft 0kts
30-Jul-18 16:42 38.696993 -121.593388 182 32ft 0kts
30-Jul-18 16:43 38.696993 -121.593388 182 32ft 0kts
30-Jul-18 16:44 38.696892 -121.593274 92 32ft 3kts
30-Jul-18 16:45 38.696938 -121.589228 90 32ft 9kts
30-Jul-18 16:46 38.696869 -121.585394 91 30ft 12kts
30-Jul-18 16:47 38.696846 -121.583608 91 29ft 3kts
30-Jul-18 16:48 38.699824 -121.582687 1 29ft 17kts
30-Jul-18 16:49 38.704795 -121.582578 2 29ft 17kts
30-Jul-18 16:50 38.706841 -121.581770 85 29ft 4kts
30-Jul-18 16:51 38.706820 -121.581122 102 29ft 0kts
30-Jul-18 16:52 38.706820 -121.581122 102 29ft 0kts
30-Jul-18 16:53 38.705813 -121.580085 180 29ft 0kts
30-Jul-18 16:54 38.681002 -121.580351 180 497ft 193kts
30-Jul-18 16:55 38.634657 -121.556966 89 3667ft 210kts
30-Jul-18 16:56 38.677957 -121.505886 25 5806ft 259kts
30-Jul-18 16:57 38.750239 -121.479100 341 8327ft 293kts
30-Jul-18 16:58 38.826406 -121.520750 336 10842ft 324kts
30-Jul-18 16:59 38.901010 -121.562004 336 11719ft 379kts
30-Jul-18 17:00 39.019420 -121.627587 335 13418ft 414kts
30-Jul-18 17:01 39.101048 -121.672939 335 14816ft 424kts
30-Jul-18 17:02 39.205089 -121.730857 335 16491ft 434kts
30-Jul-18 17:03 39.316248 -121.792939 334 18099ft 444kts
30-Jul-18 17:04 39.449113 -121.867424 334 19796ft 455kts
30-Jul-18 17:05 39.546620 -121.922289 334 20914ft 462kts
30-Jul-18 17:06 39.664722 -121.988967 334 22139ft 470kts
30-Jul-18 17:07 39.784709 -122.056967 334 23255ft 478kts
30-Jul-18 17:08 39.906239 -122.126105 334 24271ft 485kts
30-Jul-18 17:09 40.027572 -122.195396 334 25137ft 493kts
30-Jul-18 17:10 40.151991 -122.248769 348 25908ft 502kts
30-Jul-18 17:11 40.285884 -122.279930 348 26721ft 505kts
30-Jul-18 17:12 40.422102 -122.311889 348 27647ft 504kts
30-Jul-18 17:13 40.558010 -122.343883 348 28608ft 502kts
30-Jul-18 17:14 40.690106 -122.375102 347 29535ft 500kts
30-Jul-18 17:15 40.822161 -122.406434 347 30457ft 498kts
30-Jul-18 17:16 40.956416 -122.438420 347 31362ft 497kts
30-Jul-18 17:17 41.090362 -122.470461 347 32015ft 496kts
30-Jul-18 17:18 41.215430 -122.500503 346 32101ft 496kts
30-Jul-18 17:19 41.349379 -122.532800 346 32136ft 496kts
30-Jul-18 17:20 41.483538 -122.565292 346 32126ft 495kts
30-Jul-18 17:21 41.619891 -122.581454 354 32130ft 499kts
30-Jul-18 17:22 41.756481 -122.590390 354 32133ft 499kts
30-Jul-18 17:23 41.894619 -122.599434 354 32136ft 499kts
30-Jul-18 17:24 42.031495 -122.608423 354 32137ft 499kts
30-Jul-18 17:25 42.166256 -122.617305 354 32115ft 499kts
30-Jul-18 17:26 42.303722 -122.626424 354 32088ft 499kts
30-Jul-18 17:27 42.441626 -122.635790 354 32088ft 499kts
30-Jul-18 17:28 42.580044 -122.645044 354 32091ft 499kts
30-Jul-18 17:29 42.714257 -122.654071 354 32094ft 499kts
30-Jul-18 17:30 42.845631 -122.662971 354 32096ft 499kts
30-Jul-18 17:31 42.983570 -122.672367 353 32066ft 502kts
30-Jul-18 17:32 43.119061 -122.681641 353 32062ft 508kts
30-Jul-18 17:33 43.251288 -122.690707 353 32126ft 510kts
30-Jul-18 17:34 43.391831 -122.700406 353 32137ft 510kts
30-Jul-18 17:35 43.532758 -122.710125 353 32124ft 510kts
30-Jul-18 17:36 43.671379 -122.719725 353 32132ft 510kts
30-Jul-18 17:37 43.810473 -122.729404 353 31461ft 510kts
30-Jul-18 17:38 43.950093 -122.739162 354 29792ft 506kts
30-Jul-18 17:39 44.089031 -122.748880 356 26019ft 526kts
30-Jul-18 17:40 44.199117 -122.748191 4 23645ft 516kts
30-Jul-18 17:41 44.321322 -122.736391 5 20912ft 474kts
30-Jul-18 17:42 44.446397 -122.724074 5 19227ft 434kts
30-Jul-18 17:43 44.558875 -122.712955 6 18441ft 385kts
30-Jul-18 17:44 44.662464 -122.702519 6 16830ft 368kts
30-Jul-18 17:45 44.761203 -122.692552 6 15022ft 350kts
30-Jul-18 17:46 44.856517 -122.682919 5 13265ft 341kts
30-Jul-18 17:47 44.948020 -122.673710 5 11972ft 318kts
30-Jul-18 17:48 45.032334 -122.665200 5 10733ft 298kts
30-Jul-18 17:49 45.103480 -122.657932 5 9528ft 292kts
30-Jul-18 17:50 45.172572 -122.650870 5 8350ft 286kts
30-Jul-18 17:51 45.249663 -122.640774 21 7038ft 277kts
30-Jul-18 17:52 45.314408 -122.584756 28 5624ft 274kts
30-Jul-18 17:53 45.383884 -122.552340 21 4369ft 249kts
30-Jul-18 17:54 45.442137 -122.516723 22 3153ft 216kts
30-Jul-18 17:55 45.490628 -122.485646 23 2252ft 179kts
30-Jul-18 17:56 45.531527 -122.474732 320 1599ft 139kts
30-Jul-18 17:57 45.555666 -122.520068 299 1031ft 144kts
30-Jul-18 17:58 45.575028 -122.569904 298 279ft 147kts
30-Jul-18 17:59 45.589636 -122.607198 299 26ft 36kts
30-Jul-18 18:00 45.593192 -122.613057 26 26ft 1kts
30-Jul-18 18:01 45.592024 -122.608588 118 26ft 20kts
30-Jul-18 18:02 45.591304 -122.601390 119 26ft 13kts
30-Jul-18 18:03 45.589837 -122.600460 83 26ft 6kts
30-Jul-18 18:04 45.589865 -122.600039 84 26ft 0kts

Navigation Log

Ident Type
Flight plan parsing failed, navigation log unavailable